Time;durP1;ratioP1;P1;durP2;ratioP2;P2;SDS_P1;SDS_P2;PMS_P1;PMS_P2;Temp;Humidity;BMP_temperature;BMP_pressure;BME280_temperature;BME280_humidity;BME280_pressure;Samples;Min_cycle;Max_cycle;Signal;HPM_P1;HPM_P2
2022/12/01 00:02:03;;;;;;;;;52.50;42.00;;;;;7.13;80.86;101900.28;5099931;27;45270;-60
2022/12/01 00:04:29;;;;;;;;;52.25;44.00;;;;;7.19;80.23;101917.81;5082083;27;45399;-61
2022/12/01 00:06:54;;;;;;;;;50.50;39.00;;;;;7.20;80.46;101911.63;5109949;27;45561;-63
2022/12/01 00:12:03;;;;;;;;;61.00;44.00;;;;;7.11;80.20;101896.81;5079493;28;45223;-60
2022/12/01 00:14:29;;;;;;;;;54.25;42.00;;;;;7.09;80.32;101890.69;5061666;28;45208;-61
2022/12/01 00:16:54;;;;;;;;;52.50;44.00;;;;;7.15;80.16;101897.59;5099148;27;45182;-60
2022/12/01 00:19:24;;;;;;;;;58.00;46.50;;;;;7.10;80.46;101897.72;5098519;27;46186;-59
2022/12/01 00:21:49;;;;;;;;;62.25;44.25;;;;;7.03;80.52;101893.44;5103605;27;45359;-60
2022/12/01 00:24:15;;;;;;;;;56.00;43.00;;;;;7.06;80.26;101893.41;5105679;27;45452;-61
2022/12/01 00:26:40;;;;;;;;;49.00;40.25;;;;;7.12;80.16;101908.25;5099731;27;45820;-61
2022/12/01 00:29:06;;;;;;;;;55.00;42.50;;;;;7.08;79.61;101903.03;5099880;27;46372;-59
2022/12/01 00:31:31;;;;;;;;;41.75;38.50;;;;;7.04;80.24;101911.06;5079792;27;45694;-59
2022/12/01 00:33:56;;;;;;;;;49.75;41.50;;;;;6.99;79.78;101897.06;5087899;27;46871;-66
2022/12/01 00:36:22;;;;;;;;;48.00;37.25;;;;;6.91;79.28;101899.88;5088645;27;45395;-62
2022/12/01 00:38:51;;;;;;;;;50.75;41.25;;;;;6.95;79.45;101901.53;5085435;27;45406;-61
2022/12/01 00:41:17;;;;;;;;;50.50;43.00;;;;;6.87;79.31;101887.59;5083711;27;45394;-62
2022/12/01 00:43:43;;;;;;;;;58.25;39.75;;;;;6.99;79.55;101902.34;5081095;27;45337;-60
2022/12/01 00:46:08;;;;;;;;;56.50;44.00;;;;;6.99;79.35;101902.34;5083337;27;45388;-60
2022/12/01 00:48:33;;;;;;;;;59.00;42.75;;;;;6.99;78.62;101912.91;5089454;27;46888;-59
2022/12/01 00:50:59;;;;;;;;;51.75;40.75;;;;;6.96;78.76;101902.41;5096716;27;45485;-59
2022/12/01 00:53:24;;;;;;;;;57.50;43.50;;;;;6.89;79.75;101906.94;5094948;27;45480;-60
2022/12/01 00:55:49;;;;;;;;;53.50;43.00;;;;;6.80;79.09;101902.72;5082222;27;45416;-60
2022/12/01 00:58:15;;;;;;;;;52.50;41.50;;;;;6.76;79.76;101910.72;5080451;27;46051;-62
2022/12/01 01:00:41;;;;;;;;;53.25;39.75;;;;;6.70;79.67;101905.56;5098997;27;45456;-60
2022/12/01 01:03:07;;;;;;;;;58.25;42.25;;;;;6.67;79.76;101905.63;5070938;27;45816;-60
2022/12/01 01:05:40;;;;;;;;;58.50;41.00;;;;;6.68;79.73;101905.59;5100087;27;45502;-61
2022/12/01 01:08:09;;;;;;;;;56.75;39.75;;;;;6.66;79.47;101890.69;5099024;27;45469;-62
2022/12/01 01:10:40;;;;;;;;;52.00;39.75;;;;;6.69;79.22;101896.75;5095513;27;45443;-60
2022/12/01 01:13:06;;;;;;;;;48.75;43.50;;;;;6.71;79.55;101894.97;5078808;27;45477;-58
2022/12/01 01:15:31;;;;;;;;;51.00;39.75;;;;;6.74;78.93;101905.47;5079545;27;45545;-59
2022/12/01 01:17:56;;;;;;;;;37.50;34.00;;;;;6.68;79.07;101899.44;5061520;27;46462;-60
2022/12/01 01:20:22;;;;;;;;;28.75;27.25;;;;;6.69;79.08;101901.19;5100901;27;45453;-59
2022/12/01 01:22:47;;;;;;;;;53.50;46.00;;;;;6.65;79.14;101902.16;5095395;27;45540;-61
2022/12/01 01:25:13;;;;;;;;;63.50;47.25;;;;;6.59;79.57;101902.25;5072102;27;45675;-61
2022/12/01 01:27:38;;;;;;;;;52.25;40.25;;;;;6.54;79.47;101891.78;5097684;27;45767;-58
2022/12/01 01:30:04;;;;;;;;;59.00;46.00;;;;;6.61;79.71;101911.03;5087631;27;45840;-59
2022/12/01 01:32:29;;;;;;;;;60.75;47.75;;;;;6.62;79.69;101907.47;5095718;27;45286;-60
2022/12/01 01:34:55;;;;;;;;;43.25;33.75;;;;;6.62;79.58;101912.75;5084315;27;45663;-59
2022/12/01 01:37:20;;;;;;;;;61.25;48.25;;;;;6.62;79.71;101918.91;5095057;27;45263;-60
2022/12/01 01:39:46;;;;;;;;;61.25;43.25;;;;;6.56;79.67;101919.03;5081186;27;45258;-57
2022/12/01 01:42:13;;;;;;;;;60.25;46.50;;;;;6.54;80.20;101915.56;5086093;27;45555;-57
2022/12/01 01:44:56;;;;;;;;;53.00;42.25;;;;;6.57;79.99;101922.56;5095196;27;45580;-58
2022/12/01 01:47:35;;;;;;;;;53.25;40.25;;;;;6.56;79.58;101923.47;5090972;27;45608;-58
2022/12/01 01:50:13;;;;;;;;;46.50;41.00;;;;;6.54;79.60;101923.50;5087172;27;45334;-61
2022/12/01 01:52:43;;;;;;;;;55.00;42.50;;;;;6.56;79.35;101931.38;5097424;27;45519;-60
2022/12/01 01:55:09;;;;;;;;;57.75;43.25;;;;;6.56;79.28;101931.38;5097767;27;45459;-61
2022/12/01 01:57:36;;;;;;;;;54.75;42.50;;;;;6.57;79.93;101941.06;5098669;27;45264;-60
2022/12/01 02:00:08;;;;;;;;;57.00;42.50;;;;;6.54;79.62;101930.56;5098572;27;45169;-61
2022/12/01 02:02:42;;;;;;;;;51.00;41.50;;;;;6.60;79.22;101933.06;5080713;27;45479;-58
2022/12/01 02:05:13;;;;;;;;;54.50;41.75;;;;;6.61;79.18;101926.88;5098623;27;45398;-59
2022/12/01 02:07:39;;;;;;;;;58.25;45.75;;;;;6.68;78.92;101925.88;5079815;27;46539;-61
2022/12/01 02:10:08;;;;;;;;;57.75;43.50;;;;;6.69;78.10;101915.28;5090905;27;45307;-61
2022/12/01 02:12:52;;;;;;;;;53.25;42.50;;;;;6.72;78.19;101924.91;5078144;27;45429;-59
2022/12/01 02:15:44;;;;;;;;;57.75;44.00;;;;;6.71;78.19;101923.16;5099023;27;45411;-60
2022/12/01 02:18:19;;;;;;;;;51.50;42.50;;;;;6.73;78.37;101913.44;5100448;27;45483;-64
2022/12/01 02:21:15;;;;;;;;;48.50;32.00;;;;;6.71;77.45;101907.31;5112211;27;45379;-61
2022/12/01 02:23:59;;;;;;;;;52.75;41.00;;;;;6.85;77.63;101915.84;5079910;27;45336;-61
2022/12/01 02:26:49;;;;;;;;;52.50;43.00;;;;;6.89;77.65;101916.66;5097206;27;45509;-59
2022/12/01 02:29:36;;;;;;;;;61.50;36.50;;;;;6.93;77.42;101921.88;5073109;27;46826;-60
2022/12/01 02:32:32;;;;;;;;;56.50;43.25;;;;;6.87;77.29;101919.31;5082972;27;45329;-60
2022/12/01 02:35:19;;;;;;;;;43.25;39.50;;;;;6.85;77.40;101922.91;5077660;27;45170;-59
2022/12/01 02:38:05;;;;;;;;;60.25;45.00;;;;;6.77;77.81;101912.47;5077401;27;45244;-58
2022/12/01 02:40:39;;;;;;;;;53.25;40.50;;;;;6.74;77.87;101909.88;5075745;27;45536;-62
2022/12/01 02:43:16;;;;;;;;;45.50;39.25;;;;;6.77;78.22;101917.75;5095548;27;45359;-63
2022/12/01 02:45:44;;;;;;;;;54.75;38.00;;;;;6.73;78.19;101905.50;5081715;27;45188;-62
2022/12/01 02:48:19;;;;;;;;;48.25;43.00;;;;;6.73;78.33;101910.78;5083605;27;45475;-61
2022/12/01 02:50:45;;;;;;;;;41.50;35.75;;;;;6.72;78.57;101911.69;5092257;27;45559;-60
2022/12/01 02:53:15;;;;;;;;;44.75;38.50;;;;;6.72;78.27;101914.34;5081647;27;45474;-60
2022/12/01 02:55:50;;;;;;;;;55.50;36.25;;;;;6.73;78.40;101910.78;5076966;27;45538;-60
2022/12/01 02:58:16;;;;;;;;;54.00;41.25;;;;;6.67;78.23;101910.91;5094675;27;45491;-60
2022/12/01 03:00:55;;;;;;;;;61.00;40.75;;;;;6.67;77.71;101905.63;5090501;27;45288;-62
2022/12/01 03:03:48;;;;;;;;;44.75;40.00;;;;;6.67;78.21;101905.63;5084762;27;45460;-60
2022/12/01 03:06:27;;;;;;;;;51.75;42.25;;;;;6.64;77.79;101905.66;5074166;28;45604;-64
2022/12/01 03:09:33;;;;;;;;;40.25;40.25;;;;;6.63;78.50;101910.09;5077479;27;45400;-64
2022/12/01 03:12:37;;;;;;;;;48.75;38.50;;;;;6.56;78.68;101908.47;5077168;27;46340;-63
2022/12/01 03:15:11;;;;;;;;;45.25;40.75;;;;;6.50;78.58;101908.56;5024316;27;45300;-61
2022/12/01 03:17:53;;;;;;;;;52.75;41.00;;;;;6.42;79.55;101889.34;5077178;27;45245;-61
2022/12/01 03:20:27;;;;;;;;;59.50;41.00;;;;;6.44;79.66;101892.84;5078118;27;45372;-59
2022/12/01 03:23:00;;;;;;;;;56.25;46.25;;;;;6.38;79.59;101899.13;5079634;27;45438;-60
2022/12/01 03:25:28;;;;;;;;;47.50;40.75;;;;;6.37;79.88;101902.63;5087689;27;45158;-62
2022/12/01 03:27:56;;;;;;;;;39.25;32.75;;;;;6.45;79.88;101899.88;5061819;27;45532;-60
2022/12/01 03:30:24;;;;;;;;;53.00;41.00;;;;;6.47;79.62;101906.00;5095259;27;45504;-59
2022/12/01 03:32:56;;;;;;;;;59.75;43.75;;;;;6.47;79.32;101898.06;5091398;27;46918;-60
2022/12/01 03:35:35;;;;;;;;;40.00;32.50;;;;;6.54;79.54;101905.00;5065072;27;45433;-59
2022/12/01 03:38:12;;;;;;;;;65.50;45.75;;;;;6.56;79.09;101912.88;5089401;27;45504;-59
2022/12/01 03:40:39;;;;;;;;;48.00;38.25;;;;;6.47;78.99;101904.22;5079818;27;45472;-61
2022/12/01 03:43:12;;;;;;;;;61.75;44.00;;;;;6.42;79.68;101910.50;5089609;27;46434;-58
2022/12/01 03:45:58;;;;;;;;;47.00;39.00;;;;;6.44;79.88;101904.28;5091106;27;46911;-61
2022/12/01 03:48:24;;;;;;;;;49.00;38.25;;;;;6.46;79.56;101915.69;5079383;27;45435;-62
2022/12/01 03:51:17;;;;;;;;;50.00;41.50;;;;;6.44;79.46;101904.28;5098372;27;45528;-59
2022/12/01 03:54:02;;;;;;;;;48.75;39.25;;;;;6.47;79.68;101900.69;5097293;27;45291;-62
2022/12/01 03:56:35;;;;;;;;;47.50;37.75;;;;;6.49;79.58;101902.41;5096574;27;45323;-61
2022/12/01 03:59:03;;;;;;;;;66.50;49.00;;;;;6.40;78.94;101897.31;5096636;27;45436;-59
2022/12/01 04:01:31;;;;;;;;;42.50;28.75;;;;;6.47;79.00;101904.22;5093636;27;45343;-60
2022/12/01 04:04:06;;;;;;;;;45.50;41.00;;;;;6.46;78.94;101897.19;5095725;27;45488;-58
2022/12/01 04:06:35;;;;;;;;;54.25;39.50;;;;;6.48;79.18;101903.31;5076436;28;45324;-57
2022/12/01 04:09:00;;;;;;;;;48.50;37.25;;;;;6.43;79.29;101894.59;5077665;28;45370;-60
2022/12/01 04:14:10;;;;;;;;;41.00;35.50;;;;;6.39;79.87;101892.94;5076448;28;45400;-61
2022/12/01 04:16:35;;;;;;;;;53.75;43.25;;;;;6.44;79.40;101887.56;5064634;27;45456;-61
2022/12/01 04:19:00;;;;;;;;;44.25;35.75;;;;;6.47;79.57;101887.47;5080983;27;46130;-62
2022/12/01 04:21:26;;;;;;;;;53.00;41.00;;;;;6.45;79.34;101890.16;5096553;27;45279;-61
2022/12/01 04:24:00;;;;;;;;;49.75;39.50;;;;;6.51;78.93;101894.47;5079313;27;45946;-58
2022/12/01 04:26:36;;;;;;;;;56.75;42.00;;;;;6.49;78.92;101886.56;5083063;27;45332;-60
2022/12/01 04:29:04;;;;;;;;;51.50;39.00;;;;;6.51;79.23;101894.47;5072638;27;45393;-58
2022/12/01 04:31:30;;;;;;;;;51.75;44.25;;;;;6.47;78.72;101890.13;5087716;27;46947;-60
2022/12/01 04:33:57;;;;;;;;;46.25;39.25;;;;;6.45;78.82;101895.44;5075012;27;45444;-56
2022/12/01 04:36:23;;;;;;;;;51.50;41.75;;;;;6.38;78.87;101896.47;5082175;27;45559;-57
2022/12/01 04:38:49;;;;;;;;;45.75;39.75;;;;;6.29;79.55;101901.91;5086616;27;45344;-60
2022/12/01 04:41:14;;;;;;;;;54.00;41.25;;;;;6.19;80.22;101897.69;5092699;27;45496;-61
2022/12/01 04:43:40;;;;;;;;;40.75;35.25;;;;;6.15;79.71;101885.44;5079063;27;45418;-62
2022/12/01 04:46:06;;;;;;;;;49.00;37.75;;;;;6.20;80.54;101899.41;5081661;27;45240;-61
2022/12/01 04:48:34;;;;;;;;;43.00;37.75;;;;;6.22;80.31;101900.25;5097959;27;45344;-62
2022/12/01 04:51:00;;;;;;;;;58.25;43.75;;;;;6.18;80.51;101893.28;5094236;27;45753;-63
2022/12/01 04:53:25;;;;;;;;;50.25;43.00;;;;;6.13;80.59;101897.78;5084951;27;45987;-65
2022/12/01 04:55:51;;;;;;;;;49.00;41.75;;;;;6.10;80.83;101900.47;5094625;27;45533;-61
2022/12/01 04:58:16;;;;;;;;;54.00;44.75;;;;;6.09;80.63;101890.81;5079210;27;45470;-61
2022/12/01 05:00:42;;;;;;;;;51.00;30.25;;;;;6.07;80.96;101901.41;5098757;27;45536;-60
2022/12/01 05:03:07;;;;;;;;;51.50;44.00;;;;;6.05;80.29;101899.69;5081054;27;45364;-60
2022/12/01 05:05:32;;;;;;;;;47.00;37.50;;;;;6.09;80.43;101906.66;5095902;27;45504;-59
2022/12/01 05:07:58;;;;;;;;;64.75;43.75;;;;;6.01;80.21;101892.72;5090720;27;45252;-61
2022/12/01 05:10:24;;;;;;;;;44.75;38.75;;;;;6.07;80.84;101898.75;5080909;27;45301;-60
2022/12/01 05:12:50;;;;;;;;;54.75;41.75;;;;;6.05;80.18;101902.31;5080042;27;45305;-59
2022/12/01 05:15:16;;;;;;;;;51.00;41.50;;;;;6.00;79.93;101902.41;5099471;27;45335;-61
2022/12/01 05:17:41;;;;;;;;;54.75;44.50;;;;;6.07;80.17;101905.81;5095190;27;45391;-60
2022/12/01 05:22:58;;;;;;;;;58.50;41.00;;;;;6.09;79.82;101902.25;5091478;27;45370;-60
2022/12/01 05:25:23;;;;;;;;;49.25;38.25;;;;;6.17;79.27;101902.13;5096516;27;45282;-60
2022/12/01 05:27:49;;;;;;;;;60.25;41.75;;;;;6.17;79.18;101904.75;5098156;27;45481;-63
2022/12/01 05:30:14;;;;;;;;;64.25;41.75;;;;;6.24;79.42;101898.47;5089012;27;45386;-60
2022/12/01 05:32:40;;;;;;;;;49.75;44.25;;;;;6.29;79.26;101896.63;5082970;27;46284;-59
2022/12/01 05:35:06;;;;;;;;;45.50;37.50;;;;;6.38;78.73;101898.22;5079138;27;45239;-60
2022/12/01 05:37:33;;;;;;;;;59.75;44.25;;;;;6.30;77.86;101900.13;5091680;27;45204;-60
2022/12/01 05:39:59;;;;;;;;;39.50;33.00;;;;;6.22;78.26;101894.97;5083558;27;46309;-60
2022/12/01 05:42:24;;;;;;;;;50.00;40.50;;;;;6.32;77.73;101899.22;5096691;27;45489;-61
2022/12/01 05:44:50;;;;;;;;;54.00;44.50;;;;;6.34;77.79;101904.47;5080174;27;45456;-61
2022/12/01 05:47:15;;;;;;;;;45.75;41.75;;;;;6.35;77.02;101895.63;5098264;27;45426;-61
2022/12/01 05:49:40;;;;;;;;;53.75;40.75;;;;;6.44;77.37;101904.28;5098496;27;45509;-59
2022/12/01 05:52:06;;;;;;;;;41.00;32.25;;;;;6.43;76.41;101899.91;5097961;27;45456;-58
2022/12/01 05:54:31;;;;;;;;;51.50;43.25;;;;;6.44;76.05;101917.50;5098533;27;45655;-59
2022/12/01 05:56:56;;;;;;;;;44.75;32.25;;;;;6.39;75.95;101910.56;5095821;27;45405;-58
2022/12/01 05:59:22;;;;;;;;;50.00;37.25;;;;;6.39;76.69;101914.06;5100018;27;45420;-58
2022/12/01 06:01:47;;;;;;;;;48.50;40.25;;;;;6.46;76.40;101906.88;5098771;27;46173;-59
2022/12/01 06:04:13;;;;;;;;;38.75;33.25;;;;;6.43;76.07;101904.31;5099606;27;45318;-57
2022/12/01 06:06:39;;;;;;;;;52.50;42.50;;;;;6.54;75.57;101912.91;5106008;27;45382;-65
2022/12/01 06:09:04;;;;;;;;;62.25;44.75;;;;;6.53;75.84;101902.38;5099162;27;45231;-60
2022/12/01 06:11:29;;;;;;;;;53.75;42.25;;;;;6.62;75.90;101916.28;5078732;27;46903;-61
2022/12/01 06:13:55;;;;;;;;;49.50;40.25;;;;;6.62;76.02;101912.75;5097375;27;45420;-62
2022/12/01 06:16:20;;;;;;;;;39.75;36.25;;;;;6.65;75.36;101913.59;5090578;27;45912;-59
2022/12/01 06:18:45;;;;;;;;;46.50;40.50;;;;;6.64;75.50;101913.59;5081579;27;45425;-58
2022/12/01 06:21:11;;;;;;;;;42.75;35.25;;;;;6.66;75.28;101915.34;5112133;27;45522;-57
2022/12/01 06:23:37;;;;;;;;;40.50;36.50;;;;;6.61;75.16;101918.94;5086061;27;45650;-60
2022/12/01 06:26:02;;;;;;;;;38.75;30.75;;;;;6.55;74.95;101903.22;5118883;27;45550;-60
2022/12/01 06:28:28;;;;;;;;;42.00;31.75;;;;;6.48;74.92;101900.66;5094837;27;45506;-59
2022/12/01 06:30:53;;;;;;;;;47.50;36.50;;;;;6.46;75.60;101912.19;5093426;27;45410;-58
2022/12/01 06:33:19;;;;;;;;;55.75;42.50;;;;;6.49;75.21;101906.81;5078007;27;45334;-59
2022/12/01 06:35:44;;;;;;;;;47.50;38.25;;;;;6.49;74.74;101904.19;5091948;27;45367;-60
2022/12/01 06:38:09;;;;;;;;;41.75;39.25;;;;;6.56;75.55;101918.16;5092119;27;45559;-61
2022/12/01 06:40:35;;;;;;;;;50.75;37.25;;;;;6.49;75.21;101917.41;5097965;27;45932;-64
2022/12/01 06:43:04;;;;;;;;;47.50;39.50;;;;;6.53;75.37;101910.31;5093171;27;45699;-60
2022/12/01 06:45:30;;;;;;;;;54.75;40.25;;;;;6.62;75.10;101923.34;5078565;27;45336;-60
2022/12/01 06:47:56;;;;;;;;;60.50;40.50;;;;;6.64;74.57;101921.53;5097446;27;45480;-61
2022/12/01 06:50:23;;;;;;;;;60.75;40.50;;;;;6.45;74.98;101921.88;5095968;27;47018;-62
2022/12/01 06:52:49;;;;;;;;;49.75;38.25;;;;;6.49;74.91;101926.19;5085972;27;45383;-61
2022/12/01 06:55:15;;;;;;;;;42.25;39.25;;;;;6.55;75.07;101927.00;5092552;27;45474;-63
2022/12/01 06:57:40;;;;;;;;;49.50;39.75;;;;;6.60;75.02;101935.72;5100353;27;45497;-63
2022/12/01 07:00:07;;;;;;;;;48.50;42.00;;;;;6.63;74.99;101933.00;5078600;27;49247;-62
2022/12/01 07:02:33;;;;;;;;;40.25;35.75;;;;;6.65;75.20;101928.59;5082149;27;45503;-61
2022/12/01 07:04:59;;;;;;;;;50.75;37.75;;;;;6.60;74.15;101930.41;5083367;27;45341;-59
2022/12/01 07:07:24;;;;;;;;;41.00;39.25;;;;;6.61;74.41;101942.75;5094689;27;45502;-58
2022/12/01 07:09:50;;;;;;;;;41.00;35.00;;;;;6.48;75.00;101942.97;5095914;27;45487;-60
2022/12/01 07:12:15;;;;;;;;;52.25;37.00;;;;;6.54;75.20;101949.06;5096296;27;45434;-65
2022/12/01 07:14:41;;;;;;;;;46.00;35.00;;;;;6.60;74.57;101946.28;5074250;27;45418;-62
2022/12/01 07:17:08;;;;;;;;;43.00;39.25;;;;;6.58;74.68;101954.25;5079251;27;45426;-64
2022/12/01 07:19:33;;;;;;;;;60.25;42.75;;;;;6.56;74.55;101944.59;5075048;27;47209;-61
2022/12/01 07:21:59;;;;;;;;;46.75;38.00;;;;;6.41;75.07;101940.47;5089400;27;45527;-60
2022/12/01 07:24:24;;;;;;;;;45.50;39.75;;;;;6.50;75.29;101951.72;5088763;27;45420;-60
2022/12/01 07:26:50;;;;;;;;;62.50;42.00;;;;;6.53;74.94;101953.47;5096387;27;45533;-59
2022/12/01 07:29:15;;;;;;;;;55.50;44.00;;;;;6.47;74.22;101965.00;5078007;27;47250;-61
2022/12/01 07:31:41;;;;;;;;;46.25;38.75;;;;;6.44;75.46;101957.13;5092613;27;45422;-61
2022/12/01 07:34:11;;;;;;;;;50.75;36.50;;;;;6.41;75.14;101951.91;5089960;27;45503;-60
2022/12/01 07:36:36;;;;;;;;;53.50;42.50;;;;;6.46;74.88;101968.53;5091856;27;47148;-59
2022/12/01 07:39:06;;;;;;;;;50.25;42.00;;;;;6.52;75.52;101977.28;5084517;27;45926;-57
2022/12/01 07:41:32;;;;;;;;;51.50;40.25;;;;;6.56;74.41;101971.91;5086975;27;45391;-61
2022/12/01 07:43:57;;;;;;;;;40.50;34.50;;;;;6.56;74.53;101971.03;5096688;27;45433;-62
2022/12/01 07:46:25;;;;;;;;;56.75;38.00;;;;;6.60;74.87;101984.16;5092750;27;45493;-61
2022/12/01 07:48:52;;;;;;;;;59.75;46.75;;;;;6.60;74.61;101988.56;5095606;27;45526;-61
2022/12/01 07:51:17;;;;;;;;;44.50;37.75;;;;;6.54;74.15;101988.69;5096711;27;45546;-62
2022/12/01 07:53:45;;;;;;;;;39.75;35.50;;;;;6.58;74.80;101993.91;5096666;27;45452;-59
2022/12/01 07:56:11;;;;;;;;;53.50;41.75;;;;;6.53;74.32;102003.69;5085893;27;45619;-60
2022/12/01 07:58:37;;;;;;;;;45.25;37.75;;;;;6.55;74.19;101998.38;5080293;27;45994;-60
2022/12/01 08:01:17;;;;;;;;;47.75;40.50;;;;;6.56;74.48;102003.63;5085780;27;45620;-60
2022/12/01 08:03:43;;;;;;;;;47.25;39.00;;;;;6.54;74.22;102001.91;5058545;28;45685;-61
2022/12/01 08:06:10;;;;;;;;;47.75;37.00;;;;;6.46;74.86;101994.97;5086410;27;45332;-61
2022/12/01 08:08:38;;;;;;;;;39.50;34.00;;;;;6.57;74.54;102012.44;5096430;27;45437;-59
2022/12/01 08:11:15;;;;;;;;;50.50;38.00;;;;;6.53;73.96;102008.09;5078224;27;46076;-60
2022/12/01 08:13:41;;;;;;;;;46.00;38.25;;;;;6.48;73.90;102006.38;5097732;27;45478;-59
2022/12/01 08:16:10;;;;;;;;;41.50;30.00;;;;;6.41;74.58;102015.31;5086018;27;45437;-63
2022/12/01 08:18:37;;;;;;;;;44.50;37.75;;;;;6.40;75.36;102023.28;5081505;27;47811;-59
2022/12/01 08:21:03;;;;;;;;;45.75;35.50;;;;;6.51;74.73;102016.06;5096148;27;45567;-59
2022/12/01 08:23:29;;;;;;;;;43.25;35.75;;;;;6.52;74.12;102019.56;5089867;27;45256;-60
2022/12/01 08:25:56;;;;;;;;;50.00;33.50;;;;;6.40;74.34;102008.28;5101013;27;45438;-64
2022/12/01 08:28:22;;;;;;;;;39.75;32.25;;;;;6.56;74.26;102018.63;5095615;27;46210;-59
2022/12/01 08:30:47;;;;;;;;;46.75;36.00;;;;;6.52;74.53;102016.94;5085162;27;45654;-63
2022/12/01 08:33:12;;;;;;;;;41.75;37.25;;;;;6.46;74.04;102021.41;5083449;27;45802;-63
2022/12/01 08:35:38;;;;;;;;;47.50;36.50;;;;;6.43;74.52;102008.25;5088741;27;45457;-60
2022/12/01 08:38:03;;;;;;;;;36.25;31.00;;;;;6.56;74.50;102018.63;5103113;27;45495;-57
2022/12/01 08:40:29;;;;;;;;;43.50;35.25;;;;;6.53;74.66;102016.03;5102046;27;45287;-58
2022/12/01 08:42:55;;;;;;;;;47.75;41.75;;;;;6.58;74.62;102027.38;5084745;27;45444;-58
2022/12/01 08:45:21;;;;;;;;;70.25;54.00;;;;;6.64;74.34;102022.88;5097502;27;45591;-60
2022/12/01 08:47:48;;;;;;;;;46.25;31.00;;;;;6.65;74.47;102029.91;5070509;27;45471;-58
2022/12/01 08:50:14;;;;;;;;;69.50;49.50;;;;;6.60;74.56;102015.88;5098061;27;45458;-60
2022/12/01 08:52:40;;;;;;;;;43.75;36.25;;;;;6.63;74.17;102028.16;5095522;27;45548;-60
2022/12/01 08:55:06;;;;;;;;;40.25;36.00;;;;;6.48;74.51;102031.94;5079088;27;45689;-62
2022/12/01 08:57:31;;;;;;;;;44.50;36.50;;;;;6.51;74.68;102031.91;5081218;27;45662;-63
2022/12/01 08:59:57;;;;;;;;;31.75;26.00;;;;;6.61;75.12;102037.91;5099255;27;45371;-62
2022/12/01 09:02:23;;;;;;;;;44.50;36.00;;;;;6.67;74.18;102032.53;5099604;27;45402;-63
2022/12/01 09:04:49;;;;;;;;;39.50;32.25;;;;;6.70;74.17;102029.81;5099375;27;45483;-64
2022/12/01 09:07:15;;;;;;;;;32.50;28.25;;;;;6.72;74.14;102030.66;5098846;27;46088;-63
2022/12/01 09:09:42;;;;;;;;;36.75;29.00;;;;;6.71;74.01;102021.88;5081455;27;45505;-63
2022/12/01 09:12:08;;;;;;;;;38.75;30.75;;;;;6.65;74.03;102023.75;5099842;27;45443;-62
2022/12/01 09:14:38;;;;;;;;;27.00;23.25;;;;;6.68;74.50;102029.84;5100286;27;45315;-64
2022/12/01 09:17:04;;;;;;;;;36.00;29.75;;;;;6.76;74.58;102029.69;5098829;27;46291;-62
2022/12/01 09:19:29;;;;;;;;;37.50;33.00;;;;;6.79;73.88;102013.81;5100063;27;45367;-62
2022/12/01 09:21:55;;;;;;;;;42.75;30.75;;;;;6.79;73.85;102016.44;5099123;27;45401;-62
2022/12/01 09:24:21;;;;;;;;;37.00;28.75;;;;;6.89;73.15;102030.34;5098443;27;45266;-63
2022/12/01 09:26:46;;;;;;;;;44.25;34.25;;;;;6.87;73.69;102017.16;5098133;27;47554;-62
2022/12/01 09:29:14;;;;;;;;;36.00;30.75;;;;;6.67;73.38;102011.38;5099102;27;45504;-63
2022/12/01 09:31:40;;;;;;;;;42.75;33.75;;;;;6.65;74.05;102024.63;5080758;27;45372;-60
2022/12/01 09:34:09;;;;;;;;;35.75;31.25;;;;;6.71;74.32;102027.16;5099094;27;45403;-61
2022/12/01 09:36:39;;;;;;;;;34.00;30.00;;;;;6.85;74.20;102021.63;5098681;27;47398;-60
2022/12/01 09:39:06;;;;;;;;;33.50;30.00;;;;;6.94;73.71;102032.03;5098912;27;45380;-63
2022/12/01 09:41:39;;;;;;;;;30.25;27.50;;;;;6.87;73.21;102022.47;5098741;27;45443;-61
2022/12/01 09:44:40;;;;;;;;;40.25;30.50;;;;;6.86;73.07;102033.94;5098828;27;45315;-60
2022/12/01 09:47:08;;;;;;;;;52.75;38.00;;;;;6.82;73.64;102031.38;5080021;27;46351;-61
2022/12/01 09:49:46;;;;;;;;;43.75;32.00;;;;;6.79;73.50;102019.09;5098391;27;45260;-62
2022/12/01 09:52:14;;;;;;;;;35.00;26.25;;;;;6.89;73.73;102020.66;5099789;27;45304;-59
2022/12/01 09:54:40;;;;;;;;;38.25;21.25;;;;;7.01;73.34;102023.06;5098165;27;45513;-59
2022/12/01 09:57:15;;;;;;;;;36.25;30.25;;;;;7.07;72.58;102022.97;5082352;27;45327;-62
2022/12/01 09:59:42;;;;;;;;;37.00;33.50;;;;;7.13;72.26;102036.97;5088560;27;45426;-62
2022/12/01 10:02:36;;;;;;;;;40.75;28.75;;;;;7.07;72.21;102020.34;5098219;27;45344;-62
2022/12/01 10:05:09;;;;;;;;;39.50;32.00;;;;;7.12;72.54;102022.88;5097532;27;45613;-62
2022/12/01 10:08:04;;;;;;;;;37.00;28.25;;;;;7.09;72.62;102021.19;5098172;27;46435;-60
2022/12/01 10:10:36;;;;;;;;;43.50;34.75;;;;;7.16;73.22;102021.94;5098406;27;45377;-61
2022/12/01 10:13:02;;;;;;;;;43.50;31.00;;;;;7.14;71.89;102012.25;5098947;27;45309;-60
2022/12/01 10:15:42;;;;;;;;;45.25;33.75;;;;;7.24;71.52;102027.06;5099127;27;45589;-63
2022/12/01 10:18:25;;;;;;;;;35.00;30.00;;;;;7.26;71.34;102017.31;5098437;27;45595;-61
2022/12/01 10:21:17;;;;;;;;;37.50;30.25;;;;;7.37;71.07;102026.78;5079944;27;45393;-61
2022/12/01 10:23:48;;;;;;;;;36.00;28.25;;;;;7.27;71.54;102024.34;5098300;27;45364;-61
2022/12/01 10:26:18;;;;;;;;;34.00;31.25;;;;;7.16;71.94;102005.16;5099201;27;45489;-60
2022/12/01 10:29:29;;;;;;;;;33.25;27.50;;;;;7.30;71.60;102008.44;5097538;27;45457;-61
2022/12/01 10:31:59;;;;;;;;;36.00;28.00;;;;;7.45;71.30;102015.19;5096253;27;45383;-62
2022/12/01 10:34:37;;;;;;;;;46.75;33.00;;;;;7.54;71.09;102014.97;5098603;27;45355;-60
2022/12/01 10:37:04;;;;;;;;;37.00;33.00;;;;;7.50;70.99;102011.53;5098445;27;45404;-62
2022/12/01 10:39:36;;;;;;;;;44.75;31.50;;;;;7.46;71.12;102015.16;5079992;27;45477;-61
2022/12/01 10:42:16;;;;;;;;;34.50;29.25;;;;;7.50;71.12;102014.19;5079958;27;45463;-61
2022/12/01 10:44:43;;;;;;;;;33.50;28.50;;;;;7.49;70.77;102004.50;5098461;27;45280;-62
2022/12/01 10:47:23;;;;;;;;;32.75;30.25;;;;;7.55;70.81;102004.41;5098296;27;45583;-61
2022/12/01 10:49:49;;;;;;;;;40.75;35.00;;;;;7.64;71.04;102004.19;5098277;27;46389;-60
2022/12/01 10:52:29;;;;;;;;;35.50;32.00;;;;;7.49;70.09;101985.97;5098212;27;45442;-63
2022/12/01 10:54:54;;;;;;;;;39.50;34.00;;;;;7.57;70.30;101996.41;5099266;27;45423;-59
2022/12/01 10:57:20;;;;;;;;;44.75;36.75;;;;;7.62;70.63;101999.81;5098094;27;45416;-61
2022/12/01 10:59:49;;;;;;;;;35.50;29.25;;;;;7.60;69.91;101991.91;5098507;27;46262;-60
2022/12/01 11:02:21;;;;;;;;;29.25;23.75;;;;;7.62;69.50;101992.75;5097163;27;45464;-63
2022/12/01 11:05:01;;;;;;;;;43.00;29.75;;;;;7.57;70.00;101986.69;5096901;27;45553;-62
2022/12/01 11:07:31;;;;;;;;;46.75;32.25;;;;;7.62;70.47;101989.22;5094816;27;45601;-63
2022/12/01 11:10:17;;;;;;;;;24.50;24.50;;;;;7.53;69.79;101984.13;5073308;27;45476;-63
2022/12/01 11:12:51;;;;;;;;;29.25;25.75;;;;;7.52;70.08;101982.38;5090823;27;45513;-60
2022/12/01 11:15:24;;;;;;;;;40.50;33.75;;;;;7.44;69.79;101989.63;5091362;27;45387;-60
2022/12/01 11:17:58;;;;;;;;;37.50;32.50;;;;;7.43;70.28;101980.81;5094465;27;45496;-61
2022/12/01 11:20:33;;;;;;;;;35.25;26.50;;;;;7.48;70.90;101986.88;5085400;27;45540;-60
2022/12/01 11:23:17;;;;;;;;;38.75;28.75;;;;;7.53;70.77;101985.00;5076073;27;45579;-60
2022/12/01 11:25:54;;;;;;;;;40.25;39.50;;;;;7.55;70.87;101992.91;5073693;27;45395;-61
2022/12/01 11:28:20;;;;;;;;;52.50;38.75;;;;;7.59;70.50;101990.19;5093311;27;45545;-59
2022/12/01 11:30:47;;;;;;;;;43.25;32.00;;;;;7.44;70.42;101987.84;5096649;27;45465;-63
2022/12/01 11:33:14;;;;;;;;;38.50;33.25;;;;;7.30;70.35;101977.56;5091401;27;45463;-62
2022/12/01 11:35:46;;;;;;;;;33.25;29.00;;;;;7.24;70.60;101975.03;5077236;27;45312;-60
2022/12/01 11:38:20;;;;;;;;;38.50;30.25;;;;;7.23;70.77;101975.06;5088876;27;45499;-62